createdAt,value
2019-05-23T00:01:17.557Z,70.30
2019-05-23T00:04:04.731Z,70.30
2019-05-23T00:06:34.658Z,70.20
2019-05-23T00:09:06.543Z,70.10
2019-05-23T00:11:44.850Z,70.40
2019-05-23T00:14:30.882Z,70.50
2019-05-23T00:17:01.867Z,70.30
2019-05-23T00:19:32.678Z,70.30
2019-05-23T00:22:03.720Z,70.20
2019-05-23T00:24:33.079Z,71.80
2019-05-23T00:27:03.237Z,70.50
2019-05-23T00:29:33.314Z,70.80
2019-05-23T00:32:15.643Z,70.50
2019-05-23T00:34:45.446Z,70.90
2019-05-23T00:37:16.403Z,70.90
2019-05-23T00:39:47.383Z,71.10
2019-05-23T00:42:16.759Z,71.10
2019-05-23T00:44:45.960Z,71.10
2019-05-23T00:47:15.726Z,70.80
2019-05-23T00:49:46.499Z,70.90
2019-05-23T00:52:17.049Z,71.20
2019-05-23T00:54:47.372Z,71.30
2019-05-23T00:57:17.512Z,71.20
2019-05-23T00:59:47.211Z,71.00
2019-05-23T01:02:16.322Z,71.10
2019-05-23T01:04:46.045Z,71.00
2019-05-23T01:07:16.144Z,71.10
2019-05-23T01:09:46.395Z,71.70
2019-05-23T01:12:16.746Z,71.00
2019-05-23T01:14:45.985Z,70.80
2019-05-23T01:17:15.894Z,70.60
2019-05-23T01:19:44.915Z,70.90
2019-05-23T01:22:14.654Z,70.70
2019-05-23T01:24:46.704Z,70.80
2019-05-23T01:27:17.196Z,70.90
2019-05-23T01:29:51.111Z,70.80
2019-05-23T01:32:45.370Z,70.60
2019-05-23T01:35:17.356Z,70.80
2019-05-23T01:37:47.753Z,71.00
2019-05-23T01:40:17.499Z,70.60
2019-05-23T01:42:47.364Z,70.50
2019-05-23T01:45:17.772Z,70.50
2019-05-23T01:47:49.474Z,70.80
2019-05-23T01:50:22.524Z,70.80
2019-05-23T01:52:52.845Z,70.80
2019-05-23T01:55:22.238Z,70.70
2019-05-23T01:57:52.576Z,70.80
2019-05-23T02:00:24.714Z,70.80
2019-05-23T02:02:54.563Z,70.80
2019-05-23T02:05:42.948Z,71.60
2019-05-23T02:08:14.665Z,71.00
2019-05-23T02:10:44.246Z,70.70
2019-05-23T02:13:13.639Z,71.20
2019-05-23T02:15:44.482Z,70.90
2019-05-23T02:18:13.888Z,70.80
2019-05-23T02:20:43.652Z,71.00
2019-05-23T02:23:13.483Z,70.80
2019-05-23T02:25:42.881Z,70.80
2019-05-23T02:28:13.688Z,70.70
2019-05-23T02:30:43.261Z,70.80
2019-05-23T02:33:13.930Z,70.90
2019-05-23T02:35:43.084Z,70.80
2019-05-23T02:38:31.564Z,71.00
2019-05-23T02:41:08.810Z,71.00
2019-05-23T02:43:40.481Z,71.20
2019-05-23T02:46:19.781Z,71.30
2019-05-23T02:48:51.208Z,71.20
2019-05-23T02:51:25.916Z,71.00
2019-05-23T02:53:55.771Z,71.10
2019-05-23T02:56:25.374Z,71.20
2019-05-23T02:59:23.903Z,71.10
2019-05-23T03:03:02.771Z,71.10
2019-05-23T03:05:34.739Z,71.20
2019-05-23T03:08:05.794Z,71.50
2019-05-23T03:10:57.757Z,71.70
2019-05-23T03:13:32.349Z,71.40
2019-05-23T03:16:02.031Z,71.40
2019-05-23T03:18:34.501Z,71.60
2019-05-23T03:21:05.851Z,71.60
2019-05-23T03:23:35.477Z,71.40
2019-05-23T03:26:47.389Z,71.50
2019-05-23T03:29:16.938Z,71.80
2019-05-23T03:32:15.181Z,71.60
2019-05-23T03:34:47.867Z,71.40
2019-05-23T03:37:17.189Z,71.40
2019-05-23T03:39:46.384Z,71.30
2019-05-23T03:42:15.775Z,71.40
2019-05-23T03:44:46.883Z,71.70
2019-05-23T03:47:17.766Z,71.60
2019-05-23T03:49:49.822Z,71.60
2019-05-23T03:52:21.992Z,71.70
2019-05-23T03:54:54.382Z,71.70
2019-05-23T03:57:26.143Z,71.90
2019-05-23T03:59:56.741Z,71.70
2019-05-23T04:02:26.939Z,72.00
2019-05-23T04:04:57.436Z,71.80
2019-05-23T04:07:26.883Z,72.00
2019-05-23T04:09:56.243Z,71.80
2019-05-23T04:12:25.694Z,72.10
2019-05-23T04:14:55.325Z,72.40
2019-05-23T04:17:24.674Z,72.20
2019-05-23T04:19:53.790Z,72.20
2019-05-23T04:22:23.500Z,72.50
2019-05-23T04:24:52.523Z,72.50
2019-05-23T04:27:21.653Z,72.30
2019-05-23T04:29:51.325Z,72.30
2019-05-23T04:32:21.495Z,72.30
2019-05-23T04:34:50.674Z,72.50
2019-05-23T04:37:20.054Z,72.40
2019-05-23T04:39:49.267Z,72.30
2019-05-23T04:42:18.531Z,72.40
2019-05-23T04:44:47.639Z,72.20
2019-05-23T04:47:16.726Z,72.50
2019-05-23T04:49:46.067Z,72.20
2019-05-23T04:52:15.219Z,72.30
2019-05-23T04:54:44.432Z,73.10
2019-05-23T04:57:14.468Z,72.30
2019-05-23T04:59:43.944Z,72.40
2019-05-23T05:02:25.460Z,72.60
2019-05-23T05:04:44.247Z,72.90
2019-05-23T05:07:13.450Z,72.50
2019-05-23T05:09:42.506Z,72.50
2019-05-23T05:12:12.336Z,72.50
2019-05-23T05:14:41.622Z,72.30
2019-05-23T05:17:12.045Z,72.50
2019-05-23T05:19:41.620Z,72.70
2019-05-23T05:22:10.976Z,72.70
2019-05-23T05:24:40.425Z,72.70
2019-05-23T05:27:11.014Z,72.90
2019-05-23T05:29:40.254Z,72.70
2019-05-23T05:32:09.915Z,72.70
2019-05-23T05:34:39.405Z,72.80
2019-05-23T05:37:08.700Z,73.00
2019-05-23T05:39:38.655Z,73.10
2019-05-23T05:42:09.207Z,73.20
2019-05-23T05:44:39.058Z,73.00
2019-05-23T05:47:10.731Z,73.00
2019-05-23T05:49:42.352Z,73.00
2019-05-23T05:52:11.892Z,72.80
2019-05-23T05:54:41.171Z,72.90
2019-05-23T05:57:10.726Z,72.90
2019-05-23T05:59:39.969Z,73.10
2019-05-23T06:02:12.247Z,72.90
2019-05-23T06:04:41.865Z,72.90
2019-05-23T06:07:20.568Z,72.70
2019-05-23T06:09:50.836Z,71.80
2019-05-23T06:12:20.957Z,72.40
2019-05-23T06:14:50.087Z,72.70
2019-05-23T06:17:20.967Z,72.40
2019-05-23T06:19:50.326Z,72.00
2019-05-23T06:22:20.095Z,71.90
2019-05-23T06:24:53.743Z,72.50
2019-05-23T06:27:21.858Z,72.60
2019-05-23T06:29:51.235Z,72.10
2019-05-23T06:32:21.928Z,72.60
2019-05-23T06:34:54.710Z,72.30
2019-05-23T06:37:24.321Z,72.30
2019-05-23T06:39:53.914Z,71.60
2019-05-23T06:42:23.530Z,72.30
2019-05-23T06:44:53.475Z,71.30
2019-05-23T06:47:22.645Z,71.70
2019-05-23T06:49:51.986Z,71.00
2019-05-23T06:52:21.195Z,71.30
2019-05-23T06:54:50.285Z,72.10
2019-05-23T06:57:19.835Z,71.40
2019-05-23T06:59:49.083Z,71.60
2019-05-23T07:02:18.274Z,71.50
2019-05-23T07:04:47.931Z,71.40
2019-05-23T07:07:17.523Z,71.50
2019-05-23T07:09:47.131Z,70.20
2019-05-23T07:12:16.429Z,69.00
2019-05-23T07:14:45.686Z,68.90
2019-05-23T07:17:17.951Z,70.00
2019-05-23T07:19:47.175Z,69.40
2019-05-23T07:22:18.818Z,70.00
2019-05-23T07:24:57.300Z,70.90
2019-05-23T07:27:18.718Z,69.20
2019-05-23T07:29:47.968Z,69.70
2019-05-23T07:32:17.058Z,68.10
2019-05-23T07:34:46.138Z,66.00
2019-05-23T07:37:15.165Z,67.80
2019-05-23T07:39:44.400Z,67.80
2019-05-23T07:42:13.767Z,68.40
2019-05-23T07:44:48.181Z,68.20
2019-05-23T07:47:15.992Z,68.40
2019-05-23T07:49:45.159Z,68.70
2019-05-23T07:52:14.369Z,68.10
2019-05-23T07:54:49.390Z,68.80
2019-05-23T07:57:18.731Z,68.30
2019-05-23T07:59:48.737Z,67.70
2019-05-23T08:02:27.027Z,67.60
2019-05-23T08:04:56.389Z,69.70
2019-05-23T08:07:25.673Z,67.30
2019-05-23T08:09:54.709Z,66.10
2019-05-23T08:12:24.333Z,65.40
2019-05-23T08:14:53.520Z,65.50
2019-05-23T08:17:22.962Z,63.60
2019-05-23T08:19:52.260Z,64.10
2019-05-23T08:22:21.410Z,64.70
2019-05-23T08:24:51.459Z,63.40
2019-05-23T08:27:20.804Z,65.90
2019-05-23T08:29:50.523Z,64.50
2019-05-23T08:32:19.732Z,63.60
2019-05-23T08:34:48.803Z,63.90
2019-05-23T08:37:18.079Z,64.10
2019-05-23T08:39:48.894Z,64.60
2019-05-23T08:42:18.839Z,62.10
2019-05-23T08:44:48.539Z,63.90
2019-05-23T08:47:19.390Z,61.50
2019-05-23T08:49:48.543Z,62.30
2019-05-23T08:52:17.763Z,63.30
2019-05-23T08:54:49.052Z,62.70
2019-05-23T08:57:18.616Z,61.20
2019-05-23T08:59:47.735Z,61.70
2019-05-23T09:02:17.872Z,61.40
2019-05-23T09:05:03.258Z,61.50
2019-05-23T09:07:19.608Z,59.70
2019-05-23T09:09:49.430Z,61.00
2019-05-23T09:12:19.091Z,60.00
2019-05-23T09:14:48.362Z,61.50
2019-05-23T09:17:17.457Z,60.30
2019-05-23T09:19:46.648Z,59.90
2019-05-23T09:22:15.623Z,60.10
2019-05-23T09:24:44.860Z,56.60
2019-05-23T09:27:14.044Z,58.20
2019-05-23T09:29:43.329Z,57.30
2019-05-23T09:32:13.074Z,57.10
2019-05-23T09:34:42.496Z,58.00
2019-05-23T09:37:13.096Z,57.00
2019-05-23T09:39:44.283Z,57.10
2019-05-23T09:42:14.093Z,55.80
2019-05-23T09:44:43.275Z,56.40
2019-05-23T09:47:12.441Z,57.20
2019-05-23T09:49:41.619Z,56.80
2019-05-23T09:52:12.159Z,56.40
2019-05-23T09:54:41.636Z,56.00
2019-05-23T09:57:12.007Z,55.40
2019-05-23T09:59:41.179Z,53.70
2019-05-23T10:02:11.869Z,55.50
2019-05-23T10:04:41.149Z,53.10
2019-05-23T10:07:10.522Z,53.40
2019-05-23T10:09:39.575Z,54.50
2019-05-23T10:12:08.834Z,50.20
2019-05-23T10:14:39.522Z,50.30
2019-05-23T10:17:08.921Z,53.10
2019-05-23T10:19:38.495Z,54.20
2019-05-23T10:22:07.790Z,52.60
2019-05-23T10:24:36.783Z,52.10
2019-05-23T10:27:08.492Z,51.80
2019-05-23T10:29:37.577Z,50.80
2019-05-23T10:32:08.898Z,49.80
2019-05-23T10:34:37.990Z,51.80
2019-05-23T10:37:08.890Z,52.00
2019-05-23T10:39:38.063Z,49.70
2019-05-23T10:42:07.155Z,50.00
2019-05-23T10:44:36.265Z,49.80
2019-05-23T10:47:05.371Z,48.50
2019-05-23T10:49:34.717Z,48.70
2019-05-23T10:52:04.521Z,51.00
2019-05-23T10:54:33.732Z,50.50
2019-05-23T10:57:02.916Z,49.30
2019-05-23T10:59:32.086Z,51.00
2019-05-23T11:02:01.204Z,48.30
2019-05-23T11:04:30.319Z,48.60
2019-05-23T11:06:59.817Z,48.50
2019-05-23T11:09:37.958Z,47.70
2019-05-23T11:12:00.633Z,47.40
2019-05-23T11:14:29.665Z,48.50
2019-05-23T11:16:58.927Z,47.20
2019-05-23T11:19:28.739Z,47.50
2019-05-23T11:21:57.873Z,50.10
2019-05-23T11:24:27.165Z,45.60
2019-05-23T11:26:56.501Z,46.10
2019-05-23T11:29:27.416Z,48.00
2019-05-23T11:31:56.557Z,45.20
2019-05-23T11:34:26.116Z,47.00
2019-05-23T11:36:55.343Z,48.20
2019-05-23T11:39:25.269Z,48.40
2019-05-23T11:41:54.719Z,47.50
2019-05-23T11:44:23.811Z,47.60
2019-05-23T11:46:53.804Z,44.40
2019-05-23T11:49:23.367Z,44.10
2019-05-23T11:51:53.197Z,44.30
2019-05-23T11:54:23.719Z,46.50
2019-05-23T11:56:53.410Z,45.20
2019-05-23T11:59:22.498Z,44.60
2019-05-23T12:01:59.478Z,44.50
2019-05-23T12:04:33.038Z,45.40
2019-05-23T12:07:08.728Z,44.20
2019-05-23T12:09:38.066Z,44.30
2019-05-23T12:12:07.466Z,45.90
2019-05-23T12:14:37.743Z,44.10
2019-05-23T12:17:07.105Z,43.60
2019-05-23T12:19:36.860Z,44.90
2019-05-23T12:22:06.294Z,42.60
2019-05-23T12:24:36.021Z,44.80
2019-05-23T12:27:05.600Z,44.00
2019-05-23T12:29:35.397Z,43.30
2019-05-23T12:32:07.055Z,43.90
2019-05-23T12:34:36.231Z,44.10
2019-05-23T12:37:21.097Z,44.30
2019-05-23T12:39:36.688Z,44.10
2019-05-23T12:42:05.920Z,44.60
2019-05-23T12:44:35.096Z,47.00
2019-05-23T12:47:05.811Z,45.90
2019-05-23T12:49:46.181Z,46.30
2019-05-23T12:52:15.765Z,47.40
2019-05-23T12:54:45.532Z,47.20
2019-05-23T12:57:14.632Z,47.90
2019-05-23T12:59:44.028Z,45.00
2019-05-23T13:02:18.792Z,46.40
2019-05-23T13:04:48.260Z,46.70
2019-05-23T13:07:34.510Z,46.60
2019-05-23T13:09:48.063Z,47.30
2019-05-23T13:12:17.271Z,47.90
2019-05-23T13:14:46.499Z,47.30
2019-05-23T13:17:15.619Z,47.00
2019-05-23T13:19:44.668Z,45.80
2019-05-23T13:22:14.392Z,45.30
2019-05-23T13:24:52.607Z,47.40
2019-05-23T13:27:14.603Z,46.20
2019-05-23T13:29:43.935Z,47.80
2019-05-23T13:32:13.187Z,46.50
2019-05-23T13:34:42.600Z,47.40
2019-05-23T13:37:16.945Z,46.50
2019-05-23T13:39:46.224Z,45.90
2019-05-23T13:42:15.301Z,48.20
2019-05-23T13:44:44.663Z,46.50
2019-05-23T13:47:13.991Z,45.70
2019-05-23T13:49:43.276Z,44.10
2019-05-23T13:52:12.487Z,45.40
2019-05-23T13:54:41.808Z,45.90
2019-05-23T13:57:12.961Z,47.00
2019-05-23T13:59:42.455Z,45.50
2019-05-23T14:02:11.917Z,47.50
2019-05-23T14:04:41.729Z,45.80
2019-05-23T14:07:12.105Z,46.60
2019-05-23T14:09:41.636Z,46.60
2019-05-23T14:12:26.251Z,44.80
2019-05-23T14:14:41.888Z,45.70
2019-05-23T14:17:34.624Z,45.40
2019-05-23T14:20:04.233Z,45.20
2019-05-23T14:22:36.323Z,46.50
2019-05-23T14:25:06.378Z,46.10
2019-05-23T14:27:53.242Z,46.40
2019-05-23T14:30:47.668Z,46.80
2019-05-23T14:33:34.451Z,46.00
2019-05-23T14:36:06.048Z,46.20
2019-05-23T14:38:36.265Z,47.60
2019-05-23T14:41:06.402Z,46.30
2019-05-23T14:43:36.211Z,46.00
2019-05-23T14:46:08.760Z,47.40
2019-05-23T14:48:48.310Z,47.20
2019-05-23T14:51:37.252Z,46.00
2019-05-23T14:54:11.446Z,45.80
2019-05-23T14:56:40.895Z,46.80
2019-05-23T14:59:10.097Z,46.40
2019-05-23T15:01:39.300Z,47.30
2019-05-23T15:04:08.798Z,44.90
2019-05-23T15:06:38.337Z,46.50
2019-05-23T15:09:09.023Z,47.60
2019-05-23T15:11:38.954Z,46.00
2019-05-23T15:14:08.312Z,47.20
2019-05-23T15:16:37.690Z,46.30
2019-05-23T15:19:07.718Z,47.40
2019-05-23T15:21:36.899Z,46.00
2019-05-23T15:24:06.515Z,45.60
2019-05-23T15:26:35.850Z,46.40
2019-05-23T15:29:05.335Z,46.30
2019-05-23T15:31:34.651Z,45.60
2019-05-23T15:34:04.201Z,45.90
2019-05-23T15:36:36.536Z,44.90
2019-05-23T15:39:10.196Z,45.70
2019-05-23T15:41:41.107Z,44.50
2019-05-23T15:44:23.864Z,44.90
2019-05-23T15:46:41.575Z,44.20
2019-05-23T15:49:12.341Z,45.80
2019-05-23T15:51:53.746Z,44.60
2019-05-23T15:54:49.648Z,43.80
2019-05-23T15:57:23.124Z,45.70
2019-05-23T15:59:57.375Z,45.80
2019-05-23T16:02:38.380Z,45.60
2019-05-23T16:05:09.826Z,44.20
2019-05-23T16:07:38.991Z,43.80
2019-05-23T16:10:08.982Z,43.80
2019-05-23T16:12:38.079Z,45.60
2019-05-23T16:15:08.135Z,46.30
2019-05-23T16:17:37.160Z,45.40
2019-05-23T16:20:06.686Z,46.60
2019-05-23T16:22:35.884Z,45.60
2019-05-23T16:25:05.652Z,46.90
2019-05-23T16:27:35.047Z,45.90
2019-05-23T16:30:04.847Z,47.10
2019-05-23T16:32:33.892Z,46.70
2019-05-23T16:35:03.007Z,46.50
2019-05-23T16:37:32.218Z,45.80
2019-05-23T16:40:01.436Z,46.10
2019-05-23T16:42:30.801Z,45.50
2019-05-23T16:44:59.983Z,46.40
2019-05-23T16:47:29.600Z,46.80
2019-05-23T16:49:59.855Z,48.00
2019-05-23T16:52:29.059Z,47.70
2019-05-23T16:54:59.182Z,46.40
2019-05-23T16:57:43.128Z,47.10
2019-05-23T17:00:30.521Z,47.70
2019-05-23T17:03:08.635Z,47.60
2019-05-23T17:06:03.164Z,48.20
2019-05-23T17:08:49.684Z,48.70
2019-05-23T17:11:29.539Z,48.10
2019-05-23T17:14:19.447Z,47.50
2019-05-23T17:17:10.805Z,46.30
2019-05-23T17:19:45.643Z,47.40
2019-05-23T17:22:37.098Z,47.40
2019-05-23T17:25:24.422Z,47.60
2019-05-23T17:28:00.419Z,48.20
2019-05-23T17:30:35.332Z,48.20
2019-05-23T17:33:05.171Z,48.20
2019-05-23T17:35:34.853Z,47.40
2019-05-23T17:38:04.132Z,47.90
2019-05-23T17:40:33.472Z,48.00
2019-05-23T17:43:04.804Z,47.30
2019-05-23T17:45:34.102Z,47.20
2019-05-23T17:48:03.966Z,48.20
2019-05-23T17:50:34.930Z,47.10
2019-05-23T17:53:04.762Z,48.80
2019-05-23T17:55:34.445Z,47.90
2019-05-23T17:58:03.839Z,48.00
2019-05-23T18:00:39.284Z,46.40
2019-05-23T18:03:08.753Z,47.90
2019-05-23T18:05:37.990Z,48.00
2019-05-23T18:08:09.225Z,48.00
2019-05-23T18:10:44.612Z,48.50
2019-05-23T18:13:10.142Z,48.00
2019-05-23T18:15:40.009Z,48.20
2019-05-23T18:18:09.373Z,48.80
2019-05-23T18:20:39.570Z,48.20
2019-05-23T18:23:09.153Z,48.40
2019-05-23T18:25:38.474Z,49.00
2019-05-23T18:28:09.334Z,49.70
2019-05-23T18:30:48.466Z,49.30
2019-05-23T18:33:18.974Z,49.40
2019-05-23T18:35:49.154Z,49.30
2019-05-23T18:38:19.580Z,49.30
2019-05-23T18:41:02.335Z,48.50
2019-05-23T18:43:20.839Z,49.00
2019-05-23T18:45:51.990Z,49.10
2019-05-23T18:48:21.360Z,48.50
2019-05-23T18:50:51.217Z,49.00
2019-05-23T18:53:20.974Z,48.50
2019-05-23T18:55:50.711Z,49.20
2019-05-23T18:58:20.568Z,49.30
2019-05-23T19:01:11.659Z,49.50
2019-05-23T19:03:41.079Z,49.40
2019-05-23T19:06:10.446Z,49.60
2019-05-23T19:08:39.617Z,49.70
2019-05-23T19:11:20.089Z,50.00
2019-05-23T19:13:39.743Z,50.50
2019-05-23T19:16:09.214Z,50.60
2019-05-23T19:18:38.728Z,50.90
2019-05-23T19:21:08.284Z,50.90
2019-05-23T19:23:39.750Z,51.30
2019-05-23T19:26:10.006Z,51.20
2019-05-23T19:28:39.303Z,51.40
2019-05-23T19:31:09.118Z,51.50
2019-05-23T19:33:38.295Z,51.50
2019-05-23T19:36:09.367Z,51.60
2019-05-23T19:38:39.972Z,51.70
2019-05-23T19:41:10.775Z,51.70
2019-05-23T19:43:40.674Z,51.80
2019-05-23T19:46:09.771Z,51.80
2019-05-23T19:48:41.141Z,51.90
2019-05-23T19:51:11.934Z,52.10
2019-05-23T19:53:41.296Z,52.20
2019-05-23T19:56:10.576Z,52.20
2019-05-23T19:58:39.827Z,52.50
2019-05-23T20:01:09.056Z,52.30
2019-05-23T20:03:38.521Z,52.50
2019-05-23T20:06:09.545Z,52.50
2019-05-23T20:08:39.708Z,52.70
2019-05-23T20:11:08.827Z,52.90
2019-05-23T20:13:38.280Z,52.80
2019-05-23T20:16:07.840Z,53.00
2019-05-23T20:18:37.581Z,53.20
2019-05-23T20:21:07.409Z,53.20
2019-05-23T20:23:36.512Z,53.30
2019-05-23T20:26:08.302Z,54.10
2019-05-23T20:28:40.082Z,53.40
2019-05-23T20:31:11.061Z,53.80
2019-05-23T20:33:40.563Z,53.80
2019-05-23T20:36:12.986Z,53.80
2019-05-23T20:38:42.838Z,53.90
2019-05-23T20:41:12.835Z,54.10
2019-05-23T20:43:41.984Z,54.30
2019-05-23T20:46:11.715Z,54.40
2019-05-23T20:48:40.995Z,54.20
2019-05-23T20:51:10.530Z,54.60
2019-05-23T20:53:39.681Z,54.50
2019-05-23T20:56:08.879Z,54.60
2019-05-23T20:58:38.075Z,54.60
2019-05-23T21:01:17.631Z,54.50
2019-05-23T21:03:47.885Z,54.80
2019-05-23T21:06:17.258Z,54.80
2019-05-23T21:08:46.642Z,55.00
2019-05-23T21:11:15.811Z,55.60
2019-05-23T21:13:44.895Z,55.10
2019-05-23T21:16:14.161Z,55.30
2019-05-23T21:18:43.165Z,55.40
2019-05-23T21:21:12.371Z,55.30
2019-05-23T21:23:41.465Z,56.20
2019-05-23T21:26:10.564Z,55.40
2019-05-23T21:28:39.631Z,55.40
2019-05-23T21:31:15.546Z,56.40
2019-05-23T21:33:44.905Z,55.60
2019-05-23T21:36:14.027Z,55.60
2019-05-23T21:38:43.279Z,55.90
2019-05-23T21:41:12.392Z,55.90
2019-05-23T21:43:42.112Z,55.90
2019-05-23T21:46:11.389Z,56.30
2019-05-23T21:48:40.642Z,56.20
2019-05-23T21:51:09.735Z,56.30
2019-05-23T21:53:39.101Z,56.60
2019-05-23T21:56:08.327Z,56.50
2019-05-23T21:58:37.473Z,56.70
2019-05-23T22:01:34.364Z,57.10
2019-05-23T22:04:10.329Z,57.00
2019-05-23T22:06:40.745Z,57.10
2019-05-23T22:09:11.353Z,57.00
2019-05-23T22:11:40.620Z,56.90
2019-05-23T22:14:09.827Z,57.10
2019-05-23T22:16:39.136Z,57.10
2019-05-23T22:19:10.570Z,57.40
2019-05-23T22:21:39.848Z,58.10
2019-05-23T22:24:09.595Z,58.30
2019-05-23T22:26:38.806Z,58.40
2019-05-23T22:29:08.699Z,58.20
2019-05-23T22:31:38.071Z,57.90
2019-05-23T22:34:15.935Z,58.10
2019-05-23T22:36:44.922Z,58.00
2019-05-23T22:39:13.984Z,58.20
2019-05-23T22:41:43.226Z,58.00
2019-05-23T22:44:12.605Z,58.60
2019-05-23T22:46:42.328Z,58.20
2019-05-23T22:49:11.681Z,58.10
2019-05-23T22:51:40.796Z,58.00
2019-05-23T22:54:10.093Z,58.00
2019-05-23T22:56:51.354Z,58.10
2019-05-23T22:59:20.542Z,58.10
2019-05-23T23:01:49.842Z,58.50
2019-05-23T23:04:19.078Z,58.40
2019-05-23T23:06:48.143Z,58.20
2019-05-23T23:09:17.395Z,58.40
2019-05-23T23:11:46.572Z,58.60
2019-05-23T23:14:15.723Z,58.60
2019-05-23T23:16:44.956Z,59.70
2019-05-23T23:19:14.156Z,59.20
2019-05-23T23:21:43.250Z,59.20
2019-05-23T23:24:12.240Z,59.30
2019-05-23T23:26:41.315Z,59.30
2019-05-23T23:29:10.455Z,59.50
2019-05-23T23:31:39.635Z,59.30
2019-05-23T23:34:08.630Z,59.90
2019-05-23T23:36:37.717Z,59.90
2019-05-23T23:39:07.487Z,60.00
2019-05-23T23:41:36.691Z,60.00
2019-05-23T23:44:08.618Z,60.00
2019-05-23T23:46:55.744Z,60.30
2019-05-23T23:49:42.868Z,60.20
2019-05-23T23:52:30.045Z,60.70
2019-05-23T23:55:17.468Z,60.60
2019-05-23T23:58:00.995Z,60.90
